Skagen, Denmark
Current Conditions -  °F | °C
As of 4:50 AM on Saturday 25 Oct 2014 (Local Time) from ESGP Reporting Station
Haze Haze  
Wind Chill: 52°   Ceiling: 800
Heat Index: 52°   Visibility: 4mi
Dew Point: 50°   Wind: 20mph
Humidity: 94%   Direction: 170°S
Pressure: 29.85"   Gusts: NA
Location:  57.72°N, 10.58°E
Report Text: ESGP 250250Z 17017KT 7000 BR BKN008 OVC011 11/10 Q1011
Loading
Personal Weather Stations






























Interactive Weather Map New forecast layout! Learn more

10-Day Weather Forecast

Advertisements
Track Severe Weather on mobile